メインページ
METAR-TAF:

METAR-TAF

空港 :

Blue River, ブリティッシュコロンビア州, カナダ

緯度: 52-08N, 経度: 119-18W, 海抜: 679m

現時点の気象観測

当レポートは43分前の16:00(UTC)に作成
無風
気温 15°C
湿度 59%
気圧 1016 hPa
視程: 24.1km
高度6000ftの雲はほとんどない
高度19000ftの雲はほとんどない
高度30000ftの雲はほとんどない
高度35000ftの雲はほとんどない

METAR: CYCP 161600Z 00000KT 15SM FEW060 FEW190 FEW300 FEW350 15/07 A3000 RMK CU1AC1CI1CI1 CU TR AC TR SLP166 DENSITY ALT 2700FT

時間: 09:43 (16:43 UTC)


TAF: 見つかりません

4,000以上の空港の気象観測と天気予報(METAR報とTAF報)

利用可能な観測所は地図上に黄色い丸と赤い丸で示す。

丸の上にカーソルを重ねると観測所名を参照できる。

次にクリックすると気象観測と天気予報を参照できる。

マップの切り替え:黒色「×」印の緑ボタンをクリックして拡大、「-」印の緑ボタンをクリックして縮小、緑色の三角印をクリックして隣りの地図に切り替え


METAR-TAF: